Time;durP1;ratioP1;P1;durP2;ratioP2;P2;SDS_P1;SDS_P2;PMS_P1;PMS_P2;Temp;Humidity;BMP_temperature;BMP_pressure;BME280_temperature;BME280_humidity;BME280_pressure;Samples;Min_cycle;Max_cycle;Signal;HPM_P1;HPM_P2
2023/04/09 00:01:20;;;;;;;7.32;4.32;;;8.00;99.90;;;7.15;100.00;101723.63;4185065;28;20092;-76
2023/04/09 00:03:21;;;;;;;5.72;4.10;;;7.90;99.90;;;7.15;100.00;101730.66;4183880;28;20021;-77
2023/04/09 00:05:22;;;;;;;6.35;4.13;;;7.90;99.90;;;7.05;100.00;101722.59;4185000;28;20423;-76
2023/04/09 00:07:23;;;;;;;5.90;4.53;;;7.90;99.90;;;7.07;100.00;101723.34;4185063;28;20029;-76
2023/04/09 00:09:24;;;;;;;8.73;4.80;;;7.80;99.90;;;7.02;100.00;101722.81;4190604;28;20152;-76
2023/04/09 00:11:25;;;;;;;7.53;4.28;;;7.80;99.90;;;7.00;100.00;101718.66;4200241;28;20024;-76
2023/04/09 00:13:26;;;;;;;6.05;4.07;;;7.80;99.90;;;6.99;100.00;101717.00;4186637;28;20036;-76
2023/04/09 00:15:27;;;;;;;6.57;3.97;;;7.70;99.90;;;6.95;100.00;101716.38;4188217;28;20082;-77
2023/04/09 00:17:28;;;;;;;5.93;4.00;;;7.70;99.90;;;6.90;100.00;101715.03;4201702;28;20032;-76
2023/04/09 00:19:29;;;;;;;7.43;4.88;;;7.70;99.90;;;6.87;100.00;101715.22;4201698;28;20017;-76
2023/04/09 00:21:30;;;;;;;5.22;4.45;;;7.70;99.90;;;6.83;100.00;101714.59;4201249;28;20032;-76
2023/04/09 00:23:31;;;;;;;6.47;4.43;;;7.60;99.90;;;6.79;100.00;101714.91;4193182;28;20028;-77
2023/04/09 00:25:32;;;;;;;8.50;4.70;;;7.60;99.90;;;6.75;100.00;101716.09;4204960;28;20078;-76
2023/04/09 00:27:32;;;;;;;7.03;5.05;;;7.60;99.90;;;6.68;100.00;101708.66;4203465;28;20087;-77
2023/04/09 00:29:33;;;;;;;6.60;4.68;;;7.50;99.90;;;6.71;100.00;101706.75;4204920;28;20033;-77
2023/04/09 00:31:34;;;;;;;9.48;4.55;;;7.50;99.90;;;6.66;100.00;101707.91;4204427;28;20025;-76
2023/04/09 00:33:35;;;;;;;8.00;5.00;;;7.50;99.90;;;6.63;100.00;101712.56;4204805;28;20095;-76
2023/04/09 00:35:36;;;;;;;6.47;4.60;;;7.40;99.90;;;6.61;100.00;101707.41;4203142;28;20093;-76
2023/04/09 00:37:37;;;;;;;8.57;5.20;;;7.40;99.90;;;6.57;100.00;101699.88;4204798;28;20020;-76
2023/04/09 00:39:38;;;;;;;8.98;5.07;;;7.40;99.90;;;6.52;100.00;101705.41;4203339;28;20411;-76
2023/04/09 00:41:39;;;;;;;9.23;4.45;;;7.30;99.90;;;6.49;100.00;101705.63;4204782;28;20024;-77
2023/04/09 00:43:39;;;;;;;8.75;4.78;;;7.30;99.90;;;6.47;100.00;101704.91;4195037;28;20520;-76
2023/04/09 00:45:40;;;;;;;7.07;4.75;;;7.30;99.90;;;6.40;100.00;101692.31;4186566;28;20470;-76
2023/04/09 00:47:44;;;;;;;5.97;4.65;;;7.20;99.90;;;6.41;100.00;101700.09;4186651;28;20497;-76
2023/04/09 00:49:45;;;;;;;6.32;4.63;;;7.20;99.90;;;6.34;100.00;101690.97;4187947;28;20048;-76
2023/04/09 00:51:47;;;;;;;6.38;4.78;;;7.20;99.90;;;6.33;100.00;101691.91;4187844;28;20135;-77
2023/04/09 00:53:47;;;;;;;9.48;5.03;;;7.10;99.90;;;6.34;100.00;101690.97;4170078;28;20047;-76
2023/04/09 00:55:48;;;;;;;7.20;4.65;;;7.10;99.90;;;6.29;100.00;101698.31;4186372;28;20072;-76
2023/04/09 00:57:49;;;;;;;8.45;5.10;;;7.10;99.90;;;6.24;100.00;101682.06;4188721;28;20065;-76
2023/04/09 00:59:50;;;;;;;5.53;4.53;;;7.10;99.90;;;6.18;100.00;101679.88;4203279;28;20029;-76
2023/04/09 01:01:51;;;;;;;8.88;5.40;;;7.00;99.90;;;6.19;100.00;101678.06;4204066;28;20029;-76
2023/04/09 01:03:52;;;;;;;8.85;5.65;;;7.00;99.90;;;6.16;100.00;101681.75;4202927;28;20036;-76
2023/04/09 01:06:14;;;;;;;6.55;4.65;;;7.00;99.90;;;6.13;100.00;101684.56;4204274;28;20043;-76
2023/04/09 01:08:37;;;;;;;7.63;5.38;;;6.90;99.90;;;6.09;100.00;101678.69;4204166;28;20028;-76
2023/04/09 01:11:35;;;;;;;8.50;5.00;;;6.90;99.90;;;6.00;100.00;101684.56;4204070;28;20039;-76
2023/04/09 01:13:54;;;;;;;7.40;4.72;;;6.90;99.90;;;5.98;100.00;101680.38;4203968;28;20024;-76
2023/04/09 01:16:02;;;;;;;7.53;5.43;;;6.80;99.90;;;5.92;100.00;101680.78;4203837;28;20067;-76
2023/04/09 01:18:23;;;;;;;6.40;5.22;;;6.70;99.90;;;5.90;100.00;101683.53;4202855;28;20025;-76
2023/04/09 01:20:46;;;;;;;7.85;5.38;;;6.70;99.90;;;5.88;100.00;101674.09;4204025;28;20032;-76
2023/04/09 01:23:25;;;;;;;9.68;6.10;;;6.70;99.90;;;5.85;100.00;101675.16;4202631;28;20044;-76
2023/04/09 01:26:01;;;;;;;7.28;5.05;;;6.70;99.90;;;5.84;100.00;101677.81;4203999;28;20434;-76
2023/04/09 01:28:44;;;;;;;10.00;5.93;;;6.60;99.90;;;5.80;100.00;101673.72;4203668;28;20039;-77
2023/04/09 01:30:51;;;;;;;8.35;6.07;;;6.60;99.90;;;5.79;100.00;101674.69;4187654;28;20412;-76
2023/04/09 01:32:53;;;;;;;7.05;4.95;;;6.60;99.90;;;5.78;100.00;101673.00;4185986;28;20582;-76
2023/04/09 01:34:55;;;;;;;6.50;4.50;;;6.60;99.90;;;5.75;100.00;101673.19;4188322;28;20510;-76
2023/04/09 01:37:01;;;;;;;6.35;4.82;;;6.60;99.90;;;5.74;100.00;101672.34;4185818;28;20025;-76
2023/04/09 01:39:02;;;;;;;7.68;5.68;;;6.60;99.90;;;5.75;100.00;101665.34;4197251;28;20476;-76
2023/04/09 01:41:05;;;;;;;10.80;5.78;;;6.60;99.90;;;5.73;100.00;101665.47;4202496;28;20498;-77
2023/04/09 01:43:07;;;;;;;9.25;5.75;;;6.50;99.90;;;5.73;100.00;101675.09;4198703;28;20041;-76
2023/04/09 01:45:10;;;;;;;7.88;5.28;;;6.50;99.90;;;5.71;100.00;101669.09;4185570;28;20055;-76
2023/04/09 01:47:12;;;;;;;8.45;5.45;;;6.50;99.90;;;5.69;100.00;101663.97;4185729;28;20063;-76
2023/04/09 01:49:13;;;;;;;9.18;6.70;;;6.50;99.90;;;5.68;100.00;101666.69;4185630;28;20025;-76
2023/04/09 01:51:15;;;;;;;8.90;6.15;;;6.50;99.90;;;5.68;100.00;101661.44;4186998;28;20036;-76
2023/04/09 01:53:16;;;;;;;8.45;6.30;;;6.50;99.90;;;5.68;100.00;101653.59;4186976;28;20025;-76
2023/04/09 01:55:17;;;;;;;8.40;6.05;;;6.50;99.90;;;5.66;100.00;101650.25;4185618;28;20037;-77
2023/04/09 01:57:18;;;;;;;9.38;5.90;;;6.50;99.90;;;5.68;100.00;101656.22;4185587;28;20081;-76
2023/04/09 01:59:19;;;;;;;7.03;5.38;;;6.50;99.90;;;5.66;100.00;101658.09;4186891;28;20024;-76
2023/04/09 02:01:45;;;;;;;7.20;4.82;;;6.50;99.90;;;5.62;100.00;101656.63;4186590;28;20017;-76
2023/04/09 02:03:55;;;;;;;9.07;6.90;;;6.50;99.90;;;5.59;100.00;101652.44;4185511;28;20029;-76
2023/04/09 02:06:10;;;;;;;8.20;5.97;;;6.40;99.90;;;5.63;100.00;101658.31;4185632;28;20093;-76
2023/04/09 02:08:16;;;;;;;10.35;6.30;;;6.40;99.90;;;5.59;100.00;101653.28;4187707;28;20017;-76
2023/04/09 02:10:19;;;;;;;9.07;5.78;;;6.40;99.90;;;5.59;100.00;101650.66;4201421;28;20058;-77
2023/04/09 02:12:20;;;;;;;7.72;5.47;;;6.40;99.90;;;5.63;100.00;101663.53;4185315;28;20067;-77
2023/04/09 02:14:23;;;;;;;12.20;6.63;;;6.40;99.90;;;5.63;100.00;101660.91;4194507;28;20061;-76
2023/04/09 02:16:26;;;;;;;8.60;5.45;;;6.40;99.90;;;5.61;100.00;101654.97;4179722;28;20043;-76
2023/04/09 02:18:29;;;;;;;8.07;5.45;;;6.40;99.90;;;5.58;100.00;101654.19;4199955;28;20020;-76
2023/04/09 02:20:30;;;;;;;9.00;5.55;;;6.40;99.90;;;5.57;100.00;101649.94;4202054;28;20028;-76
2023/04/09 02:22:31;;;;;;;10.25;5.13;;;6.40;99.90;;;5.56;100.00;101656.09;4203099;28;20027;-76
2023/04/09 02:24:31;;;;;;;8.43;5.78;;;6.40;99.90;;;5.44;100.00;101641.19;4202996;28;20480;-76
2023/04/09 02:26:32;;;;;;;8.75;5.35;;;6.30;99.90;;;5.45;100.00;101642.03;4203025;28;20025;-76
2023/04/09 02:28:33;;;;;;;8.35;5.25;;;6.30;99.90;;;5.41;100.00;101646.63;4203050;28;20060;-76
2023/04/09 02:30:34;;;;;;;7.53;5.35;;;6.30;99.90;;;5.40;100.00;101641.53;4201534;28;20029;-76
2023/04/09 02:32:35;;;;;;;8.60;5.75;;;6.20;99.90;;;5.36;100.00;101640.03;4201745;28;20046;-76
2023/04/09 02:34:36;;;;;;;8.30;5.75;;;6.20;99.90;;;5.34;100.00;101648.00;4201377;28;20028;-76
2023/04/09 02:36:36;;;;;;;7.72;5.22;;;6.20;99.90;;;5.30;100.00;101643.88;4202880;28;20032;-76
2023/04/09 02:38:41;;;;;;;9.10;5.40;;;6.20;99.90;;;5.27;100.00;101651.94;4202831;28;20054;-76
2023/04/09 02:40:42;;;;;;;10.95;6.53;;;6.10;99.90;;;5.22;100.00;101647.94;4201511;28;20020;-77
2023/04/09 02:42:42;;;;;;;9.80;6.05;;;6.10;99.90;;;5.23;100.00;101655.69;4200508;28;20028;-76
2023/04/09 02:44:43;;;;;;;8.93;6.10;;;6.10;99.90;;;5.20;100.00;101650.66;4186121;28;20036;-76
2023/04/09 02:46:46;;;;;;;8.98;6.03;;;6.10;99.90;;;5.20;100.00;101642.81;4185805;28;20029;-77
2023/04/09 02:48:47;;;;;;;10.07;6.10;;;6.10;99.90;;;5.24;100.00;101648.69;4187525;28;20025;-76
2023/04/09 02:50:48;;;;;;;7.38;5.70;;;6.10;99.90;;;5.25;100.00;101653.81;4201238;28;20473;-76
2023/04/09 02:52:49;;;;;;;10.98;5.97;;;6.10;99.90;;;5.23;100.00;101650.44;4202598;28;20021;-77
2023/04/09 02:54:51;;;;;;;9.57;6.70;;;6.10;99.90;;;5.20;100.00;101655.88;4201292;28;20017;-76
2023/04/09 02:56:52;;;;;;;9.13;5.43;;;6.10;99.90;;;5.17;100.00;101652.66;4201267;28;20028;-76
2023/04/09 02:58:54;;;;;;;6.35;5.25;;;6.00;99.90;;;5.08;100.00;101646.22;4201113;28;20032;-76
2023/04/09 03:00:55;;;;;;;7.72;5.28;;;6.00;99.90;;;5.06;100.00;101637.63;4202466;28;20487;-76
2023/04/09 03:02:56;;;;;;;10.13;6.13;;;6.00;99.90;;;5.09;100.00;101642.66;4201318;28;20032;-76
2023/04/09 03:04:57;;;;;;;9.52;6.85;;;6.00;99.90;;;5.14;100.00;101640.59;4201454;28;20538;-76
2023/04/09 03:06:58;;;;;;;12.07;6.35;;;6.00;99.90;;;5.21;100.00;101639.25;4201004;28;20024;-76
2023/04/09 03:08:59;;;;;;;10.52;6.57;;;6.00;99.90;;;5.23;100.00;101644.38;4202376;28;20400;-76
2023/04/09 03:11:00;;;;;;;9.32;6.13;;;6.00;99.90;;;5.23;100.00;101634.75;4202351;28;20025;-76
2023/04/09 03:13:00;;;;;;;9.75;6.60;;;6.00;99.90;;;5.27;100.00;101646.72;4201156;28;20087;-76
2023/04/09 03:15:01;;;;;;;14.93;7.35;;;6.10;99.90;;;5.30;100.00;101643.03;4201921;28;20048;-76
2023/04/09 03:17:02;;;;;;;12.38;5.88;;;6.10;99.90;;;5.28;100.00;101645.78;4202125;28;20056;-76
2023/04/09 03:19:03;;;;;;;9.07;5.30;;;6.10;99.90;;;5.27;100.00;101645.88;4202211;28;20445;-76
2023/04/09 03:21:08;;;;;;;7.70;5.30;;;6.10;99.90;;;5.24;100.00;101640.84;4202217;28;20028;-76
2023/04/09 03:23:10;;;;;;;10.90;5.95;;;6.10;99.90;;;5.19;100.00;101629.84;4202133;28;20070;-76
2023/04/09 03:25:11;;;;;;;14.90;7.07;;;6.10;99.90;;;5.22;100.00;101627.88;4200961;28;20028;-76
2023/04/09 03:27:12;;;;;;;9.10;6.68;;;6.10;99.90;;;5.22;100.00;101622.63;4184144;28;20024;-76
2023/04/09 03:29:12;;;;;;;9.85;6.72;;;6.10;99.90;;;5.26;100.00;101626.72;4192360;28;20035;-76
2023/04/09 03:31:13;;;;;;;8.98;6.72;;;6.10;99.90;;;5.24;100.00;101619.91;4184178;28;20025;-76
2023/04/09 03:33:14;;;;;;;9.23;6.60;;;6.10;99.90;;;5.29;100.00;101629.13;4185421;28;20025;-76
2023/04/09 03:35:15;;;;;;;7.47;5.15;;;6.10;99.90;;;5.24;100.00;101628.59;4184186;28;20025;-76
2023/04/09 03:37:16;;;;;;;8.48;6.10;;;6.10;99.90;;;5.15;100.00;101623.97;4194476;28;20077;-76
2023/04/09 03:39:17;;;;;;;6.13;4.85;;;6.00;99.90;;;5.16;100.00;101627.41;4202003;28;20020;-76
2023/04/09 03:41:18;;;;;;;6.45;4.90;;;6.00;99.90;;;5.15;100.00;101636.19;4200534;28;20036;-76
2023/04/09 03:43:18;;;;;;;8.25;5.95;;;6.00;99.90;;;5.07;100.00;101633.25;4196282;28;20041;-76
2023/04/09 03:45:19;;;;;;;8.73;6.22;;;6.00;99.90;;;5.06;100.00;101639.41;4185099;28;20029;-76
2023/04/09 03:47:20;;;;;;;9.20;6.43;;;5.90;99.90;;;5.05;100.00;101633.34;4185267;28;20400;-76
2023/04/09 03:49:21;;;;;;;9.45;6.47;;;5.90;99.90;;;5.08;100.00;101637.56;4185097;28;20029;-76
2023/04/09 03:51:22;;;;;;;8.85;6.32;;;5.90;99.90;;;5.09;100.00;101626.97;4185325;28;20492;-77
2023/04/09 03:53:23;;;;;;;10.38;6.55;;;6.00;99.90;;;5.11;100.00;101627.69;4185267;28;20082;-77
2023/04/09 03:55:24;;;;;;;10.75;7.25;;;6.00;99.90;;;5.16;100.00;101623.03;4185091;28;20032;-76
2023/04/09 03:57:24;;;;;;;9.90;7.03;;;6.00;99.90;;;5.16;100.00;101609.13;4184689;28;20021;-76
2023/04/09 03:59:25;;;;;;;10.23;7.07;;;6.00;99.90;;;5.21;100.00;101607.88;4183947;28;20025;-77
2023/04/09 04:01:26;;;;;;;9.20;6.50;;;6.10;99.90;;;5.25;100.00;101608.50;4184781;28;20021;-77
2023/04/09 04:03:27;;;;;;;8.57;6.32;;;6.10;99.90;;;5.27;100.00;101609.25;4185084;28;20396;-76
2023/04/09 04:05:28;;;;;;;10.93;7.10;;;6.10;99.90;;;5.31;100.00;101616.81;4185068;28;20040;-76
2023/04/09 04:07:29;;;;;;;7.63;5.03;;;6.10;99.90;;;5.31;100.00;101615.97;4185139;28;20021;-76
2023/04/09 04:09:30;;;;;;;7.53;5.40;;;6.10;99.90;;;5.23;100.00;101608.59;4185108;28;20400;-76
2023/04/09 04:11:31;;;;;;;6.82;4.80;;;6.10;99.90;;;5.19;100.00;101609.75;4185231;28;20024;-77
2023/04/09 04:13:31;;;;;;;6.93;5.03;;;6.10;99.90;;;5.14;100.00;101609.19;4187536;28;20025;-76
2023/04/09 04:15:33;;;;;;;6.95;5.50;;;6.10;99.90;;;5.12;100.00;101607.63;4200246;28;20107;-77
2023/04/09 04:17:34;;;;;;;9.25;5.28;;;6.00;99.90;;;5.12;100.00;101621.53;4201646;28;20040;-76
2023/04/09 04:19:35;;;;;;;6.30;4.93;;;6.00;99.90;;;5.12;100.00;101624.16;4201566;28;20484;-76
2023/04/09 04:21:36;;;;;;;7.35;5.22;;;6.00;99.90;;;5.14;100.00;101614.44;4201444;28;20028;-76
2023/04/09 04:23:37;;;;;;;7.28;4.90;;;6.00;99.90;;;5.17;100.00;101614.22;4201649;28;20028;-76
2023/04/09 04:25:41;;;;;;;9.30;5.40;;;6.10;99.90;;;5.23;100.00;101624.28;4200395;28;20549;-76
2023/04/09 04:27:42;;;;;;;;;;;6.10;99.90;;;5.24;100.00;101618.13;4200745;28;20021;-76
2023/04/09 04:29:42;;;;;;;11.52;6.10;;;6.10;99.90;;;5.27;100.00;101610.09;4201495;28;19919;-76
2023/04/09 04:31:43;;;;;;;8.20;5.55;;;6.20;99.90;;;5.35;100.00;101613.03;4201314;28;20043;-76
2023/04/09 04:33:44;;;;;;;9.25;6.47;;;6.20;99.90;;;5.38;100.00;101602.34;4201506;28;20495;-76
2023/04/09 04:35:45;;;;;;;8.15;5.70;;;6.30;99.90;;;5.43;100.00;101609.91;4200192;28;20399;-76
2023/04/09 04:37:50;;;;;;;8.65;6.32;;;6.30;99.90;;;5.44;100.00;101616.81;4201293;28;20020;-76
2023/04/09 04:39:51;;;;;;;9.68;6.18;;;6.30;99.90;;;5.42;100.00;101621.31;4200127;28;20040;-76
2023/04/09 04:41:51;;;;;;;9.52;6.38;;;6.30;99.90;;;5.41;100.00;101619.63;4200195;28;20029;-76
2023/04/09 04:43:52;;;;;;;10.43;6.82;;;6.30;99.90;;;5.43;100.00;101625.63;4190956;28;20045;-76
2023/04/09 04:45:54;;;;;;;9.77;6.70;;;6.20;99.90;;;5.41;100.00;101625.69;4184495;28;20037;-77
2023/04/09 04:47:55;;;;;;;11.25;7.10;;;6.20;99.90;;;5.41;100.00;101615.25;4183676;28;20025;-76
2023/04/09 04:49:55;;;;;;;10.68;7.75;;;6.30;99.90;;;5.42;100.00;101624.78;4173780;28;20036;-76
2023/04/09 04:51:56;;;;;;;10.45;6.55;;;6.20;99.90;;;5.40;100.00;101623.22;4187400;28;20075;-76
2023/04/09 04:53:57;;;;;;;9.63;6.45;;;6.20;99.90;;;5.37;100.00;101634.72;4184678;28;20036;-76
2023/04/09 04:55:58;;;;;;;11.63;5.22;;;6.20;99.90;;;5.32;100.00;101630.69;4187705;28;20029;-76
2023/04/09 04:57:59;;;;;;;8.27;5.50;;;6.20;99.90;;;5.25;100.00;101634.66;4201498;28;20029;-76
2023/04/09 05:00:00;;;;;;;9.93;7.00;;;6.10;99.90;;;5.20;100.00;101634.09;4183236;28;20013;-76
2023/04/09 05:02:01;;;;;;;9.30;6.70;;;6.00;99.90;;;5.12;100.00;101621.53;4197506;28;20036;-76
2023/04/09 05:04:02;;;;;;;9.88;6.40;;;6.00;99.90;;;5.14;100.00;101619.66;4185119;28;20381;-76
2023/04/09 05:06:04;;;;;;;10.82;6.47;;;6.00;99.90;;;5.15;100.00;101617.88;4199987;28;20032;-76
2023/04/09 05:08:04;;;;;;;8.18;6.28;;;6.00;99.90;;;5.12;100.00;101623.31;4201169;28;20032;-76
2023/04/09 05:10:07;;;;;;;12.52;6.78;;;6.00;99.90;;;5.10;100.00;101617.34;4201944;28;20029;-76
2023/04/09 05:12:07;;;;;;;9.82;6.35;;;5.90;99.90;;;5.05;100.00;101606.38;4204052;28;20021;-77
2023/04/09 05:14:08;;;;;;;8.10;6.43;;;5.90;99.90;;;5.03;100.00;101619.53;4204208;28;20082;-76
2023/04/09 05:16:17;;;;;;;9.90;6.25;;;5.90;99.90;;;4.98;100.00;101614.59;4194863;28;20029;-76
2023/04/09 05:18:18;;;;;;;11.23;7.40;;;5.90;99.90;;;4.96;100.00;101626.06;4199699;28;20104;-76
2023/04/09 05:20:19;;;;;;;9.82;6.05;;;5.80;99.90;;;4.91;100.00;101626.38;4204118;28;20020;-76
2023/04/09 05:22:20;;;;;;;9.75;7.03;;;5.80;99.90;;;4.87;100.00;101627.50;4202694;28;20472;-76
2023/04/09 05:24:21;;;;;;;10.27;6.28;;;5.70;99.90;;;4.86;100.00;101617.16;4202609;28;20016;-76
2023/04/09 05:26:22;;;;;;;12.50;6.93;;;5.70;99.90;;;4.83;100.00;101618.22;4190948;28;20403;-76
2023/04/09 05:28:22;;;;;;;9.93;6.50;;;5.70;99.90;;;4.83;100.00;101627.81;4187307;28;20040;-76
2023/04/09 05:30:23;;;;;;;11.73;7.15;;;5.70;99.90;;;4.81;100.00;101619.22;4187328;28;20036;-76
2023/04/09 05:32:24;;;;;;;10.07;7.05;;;5.60;99.90;;;4.78;100.00;101614.22;4187457;28;20029;-76
2023/04/09 05:34:25;;;;;;;10.30;7.05;;;5.60;99.90;;;4.78;100.00;101627.28;4193997;28;20085;-76
2023/04/09 05:36:26;;;;;;;10.65;6.55;;;5.60;99.90;;;4.78;100.00;101624.66;4201891;28;20020;-76
2023/04/09 05:38:27;;;;;;;10.23;6.72;;;5.60;99.90;;;4.76;100.00;101632.59;4203824;28;20028;-76
2023/04/09 05:40:28;;;;;;;14.30;7.25;;;5.60;99.90;;;4.77;100.00;101636.03;4201518;28;20027;-76
2023/04/09 05:42:29;;;;;;;8.65;5.88;;;5.60;99.90;;;4.77;100.00;101646.50;4202377;28;20056;-76
2023/04/09 05:44:30;;;;;;;10.88;6.82;;;5.60;99.90;;;4.75;100.00;101646.56;4188747;28;20045;-76
2023/04/09 05:46:31;;;;;;;9.95;6.38;;;5.60;99.90;;;4.77;100.00;101646.50;4203530;28;20036;-76
2023/04/09 05:48:35;;;;;;;12.65;7.55;;;5.60;99.90;;;4.78;100.00;101643.78;4203660;28;20029;-76
2023/04/09 05:50:36;;;;;;;;;;;5.60;99.90;;;4.79;100.00;101644.63;4202803;28;20523;-76
2023/04/09 05:52:37;;;;;;;10.18;6.90;;;5.60;99.90;;;4.87;100.00;101648.41;4185540;28;19913;-77
2023/04/09 05:54:38;;;;;;;9.98;7.22;;;5.70;99.90;;;4.92;100.00;101642.91;4202105;28;20024;-76
2023/04/09 05:56:39;;;;;;;11.65;7.70;;;5.70;99.90;;;4.97;100.00;101644.28;4193565;28;20032;-77
2023/04/09 05:58:40;;;;;;;9.57;6.07;;;5.80;99.90;;;4.98;100.00;101630.28;4186868;28;20029;-76
2023/04/09 06:00:41;;;;;;;10.60;7.10;;;5.80;99.90;;;5.04;100.00;101634.28;4186461;28;20396;-77
2023/04/09 06:02:41;;;;;;;10.38;7.25;;;5.80;99.90;;;5.05;100.00;101638.56;4189851;28;20028;-77
2023/04/09 06:04:42;;;;;;;10.05;7.00;;;5.80;99.90;;;5.01;100.00;101639.72;4203198;28;20021;-76
2023/04/09 06:06:43;;;;;;;10.32;6.80;;;5.80;99.90;;;5.06;100.00;101639.41;4192618;28;20070;-76
2023/04/09 06:08:44;;;;;;;12.85;7.60;;;5.80;99.90;;;5.02;100.00;101647.44;4202575;28;20028;-77
2023/04/09 06:10:45;;;;;;;10.68;6.40;;;5.80;99.90;;;4.98;100.00;101652.97;4198547;28;20017;-76
2023/04/09 06:12:46;;;;;;;10.88;6.65;;;5.80;99.90;;;4.94;100.00;101659.34;4187814;28;20020;-76
2023/04/09 06:14:48;;;;;;;12.57;6.80;;;5.70;99.90;;;4.90;100.00;101652.59;4202811;28;20020;-77
2023/04/09 06:16:48;;;;;;;13.18;7.63;;;5.70;99.90;;;4.89;100.00;101653.56;4188831;28;20025;-77
2023/04/09 06:18:49;;;;;;;14.82;7.32;;;5.70;99.90;;;4.87;100.00;101661.50;4186598;28;20484;-77
2023/04/09 06:21:03;;;;;;;10.65;7.45;;;5.70;99.90;;;4.90;100.00;101660.44;4184954;28;20047;-76
2023/04/09 06:23:04;;;;;;;11.32;7.18;;;5.70;99.90;;;4.87;100.00;101658.03;4197720;28;20032;-77
2023/04/09 06:25:06;;;;;;;11.10;6.93;;;5.70;99.90;;;4.87;100.00;101668.50;4199474;28;20052;-77
2023/04/09 06:27:06;;;;;;;9.52;7.10;;;5.70;99.90;;;4.87;100.00;101673.72;4185238;28;20025;-76
2023/04/09 06:29:07;;;;;;;10.93;7.25;;;5.70;99.90;;;4.86;100.00;101667.69;4186335;28;20486;-76
2023/04/09 06:31:08;;;;;;;9.40;6.97;;;5.70;99.90;;;4.88;100.00;101657.09;4180084;28;20404;-76
2023/04/09 06:33:09;;;;;;;8.25;6.20;;;5.70;99.90;;;4.87;100.00;101655.41;4199950;28;20071;-76
2023/04/09 06:35:10;;;;;;;9.00;6.68;;;5.70;99.90;;;4.89;100.00;101653.56;4196284;28;20481;-76
2023/04/09 06:37:11;;;;;;;12.70;7.25;;;5.70;99.90;;;4.91;100.00;101651.69;4186230;28;20091;-76
2023/04/09 06:39:12;;;;;;;12.07;6.93;;;5.80;99.90;;;4.94;100.00;101651.50;4185032;28;20099;-76
2023/04/09 06:41:13;;;;;;;12.63;8.02;;;5.80;99.90;;;4.97;100.00;101659.13;4186091;28;20033;-76
2023/04/09 06:43:14;;;;;;;9.00;6.75;;;5.80;99.90;;;4.99;100.00;101657.25;4199923;28;20128;-76
2023/04/09 06:45:15;;;;;;;8.63;5.80;;;5.80;99.90;;;5.05;100.00;101654.25;4194173;28;20036;-76
2023/04/09 06:47:16;;;;;;;10.27;7.28;;;5.80;99.90;;;5.10;100.00;101654.81;4185062;28;20514;-76
2023/04/09 06:49:17;;;;;;;13.13;6.70;;;5.90;99.90;;;5.21;100.00;101657.56;4185917;28;20029;-76
2023/04/09 06:51:17;;;;;;;13.20;7.63;;;6.00;99.90;;;5.28;100.00;101653.63;4184961;28;20033;-76
2023/04/09 06:53:18;;;;;;;11.45;7.20;;;6.10;99.90;;;5.34;100.00;101653.22;4185936;28;20033;-76
2023/04/09 06:55:19;;;;;;;9.30;6.65;;;6.10;99.90;;;5.39;100.00;101664.22;4193510;28;20037;-77
2023/04/09 06:57:20;;;;;;;9.60;7.15;;;6.20;99.90;;;5.45;100.00;101662.97;4201162;28;20032;-77
2023/04/09 06:59:21;;;;;;;11.23;6.63;;;6.20;99.90;;;5.51;100.00;101665.19;4201229;28;20479;-77
2023/04/09 07:01:22;;;;;;;14.48;6.60;;;6.30;99.90;;;5.59;100.00;101665.50;4202207;28;20373;-76
2023/04/09 07:03:23;;;;;;;11.57;7.53;;;6.40;99.90;;;5.64;100.00;101660.84;4201163;28;20037;-76
2023/04/09 07:05:24;;;;;;;10.98;7.82;;;6.50;99.90;;;5.79;100.00;101674.69;4200110;28;20024;-77
2023/04/09 07:07:25;;;;;;;10.70;7.70;;;6.60;99.90;;;5.89;100.00;101678.38;4190027;28;20024;-76
2023/04/09 07:09:25;;;;;;;10.55;7.28;;;6.60;99.90;;;5.98;100.00;101677.75;4201111;28;20036;-76
2023/04/09 07:11:26;;;;;;;9.38;7.55;;;6.80;99.90;;;6.09;100.00;101677.88;4201055;28;20025;-76
2023/04/09 07:13:27;;;;;;;11.75;7.50;;;6.90;99.90;;;6.18;100.00;101679.03;4202039;28;20033;-76
2023/04/09 07:15:28;;;;;;;10.85;7.28;;;7.00;99.90;;;6.27;100.00;101679.25;4198350;28;20033;-76
2023/04/09 07:17:30;;;;;;;15.25;7.55;;;7.10;99.90;;;6.40;100.00;101684.47;4184585;28;20033;-76
2023/04/09 07:19:31;;;;;;;12.30;7.55;;;7.20;99.90;;;6.49;100.00;101679.41;4185609;28;20040;-76
2023/04/09 07:21:32;;;;;;;13.02;8.05;;;7.30;99.90;;;6.65;100.00;101666.09;4184471;28;20025;-76
2023/04/09 07:23:36;;;;;;;9.57;7.45;;;7.40;99.90;;;6.79;100.00;101665.09;4184653;28;20021;-76
2023/04/09 07:25:37;;;;;;;9.82;6.88;;;7.50;99.90;;;6.96;100.00;101664.75;4195112;28;20032;-76
2023/04/09 07:27:37;;;;;;;11.35;7.22;;;7.70;99.90;;;7.08;100.00;101656.81;4201990;28;20038;-76
2023/04/09 07:29:42;;;;;;;10.85;6.80;;;7.80;99.90;;;7.27;100.00;101664.19;4201067;28;20029;-76
2023/04/09 07:31:43;;;;;;;11.35;6.57;;;8.00;99.90;;;7.38;100.00;101661.59;4196806;28;20177;-76
2023/04/09 07:33:44;;;;;;;12.25;7.30;;;8.10;99.90;;;7.50;100.00;101663.31;4184764;28;20407;-76
2023/04/09 07:35:45;;;;;;;12.57;7.00;;;8.20;99.90;;;7.60;100.00;101658.22;4195528;28;20037;-76
2023/04/09 07:37:46;;;;;;;9.23;6.75;;;8.30;99.90;;;7.70;100.00;101661.84;4201861;28;20094;-76
2023/04/09 07:39:48;;;;;;;11.18;7.18;;;8.40;99.90;;;7.79;100.00;101653.28;4201795;28;20032;-76
2023/04/09 07:41:49;;;;;;;11.13;6.60;;;8.60;99.90;;;7.91;100.00;101660.22;4200742;28;20055;-76
2023/04/09 07:43:50;;;;;;;10.30;7.20;;;8.70;99.90;;;8.02;100.00;101655.00;4201750;28;20037;-76
2023/04/09 07:45:51;;;;;;;9.38;5.88;;;8.80;99.90;;;8.12;100.00;101648.06;4183648;28;20420;-76
2023/04/09 07:47:52;;;;;;;9.27;5.75;;;8.90;99.90;;;8.24;100.00;101657.63;4196672;28;20051;-76
2023/04/09 07:49:52;;;;;;;10.02;7.13;;;9.00;99.90;;;8.35;100.00;101656.84;4185316;28;20033;-76
2023/04/09 07:51:53;;;;;;;10.02;7.13;;;9.10;99.90;;;8.48;100.00;101654.94;4185214;28;20044;-76
2023/04/09 07:53:54;;;;;;;10.02;6.05;;;9.20;99.90;;;8.63;100.00;101658.97;4184127;28;20025;-76
2023/04/09 07:55:55;;;;;;;8.98;5.88;;;9.40;99.90;;;8.70;100.00;101654.06;4196525;28;20029;-76
2023/04/09 07:57:56;;;;;;;7.18;5.82;;;9.50;99.90;;;8.82;100.00;101656.56;4200693;28;20028;-76
2023/04/09 07:59:57;;;;;;;11.07;7.03;;;9.60;99.90;;;8.93;100.00;101652.25;4200513;28;20017;-76
2023/04/09 08:01:58;;;;;;;9.95;7.25;;;9.70;99.90;;;9.04;100.00;101655.69;4200584;28;20024;-76
2023/04/09 08:03:59;;;;;;;9.60;6.07;;;9.80;99.90;;;9.14;100.00;101659.22;4201631;28;20153;-76
2023/04/09 08:06:00;;;;;;;9.40;7.13;;;9.90;99.90;;;9.30;100.00;101653.56;4198681;28;20054;-76
2023/04/09 08:08:02;;;;;;;10.95;6.25;;;9.90;99.90;;;9.35;100.00;101652.22;4200359;28;20033;-76
2023/04/09 08:10:04;;;;;;;8.77;6.00;;;10.00;99.90;;;9.45;100.00;101654.94;4200348;28;20036;-76
2023/04/09 08:12:05;;;;;;;9.48;6.63;;;10.10;99.90;;;9.43;100.00;101641.06;4201551;28;20086;-76
2023/04/09 08:14:11;;;;;;;11.07;6.85;;;10.20;99.90;;;9.58;100.00;101649.50;4201765;28;20457;-76
2023/04/09 08:16:12;;;;;;;8.68;5.97;;;10.30;99.90;;;9.61;100.00;101647.44;4190720;28;20036;-76
2023/04/09 08:18:13;;;;;;;8.43;6.07;;;10.30;99.90;;;9.70;100.00;101644.03;4179875;28;20147;-76
2023/04/09 08:20:15;;;;;;;9.77;6.25;;;10.40;99.90;;;9.78;100.00;101652.13;4200920;28;20020;-75
2023/04/09 08:22:16;;;;;;;9.43;6.05;;;10.50;99.90;;;9.85;100.00;101644.53;4201676;28;20027;-76
2023/04/09 08:24:17;;;;;;;7.32;5.78;;;10.60;99.90;;;9.92;100.00;101649.16;4200257;28;20036;-76
2023/04/09 08:26:18;;;;;;;8.35;6.50;;;10.60;99.90;;;9.98;100.00;101647.78;4187890;28;20028;-76
2023/04/09 08:28:19;;;;;;;8.82;6.40;;;10.70;99.90;;;10.08;100.00;101646.06;4184847;28;20056;-76
2023/04/09 08:30:20;;;;;;;9.25;6.43;;;10.70;99.90;;;10.08;100.00;101639.94;4184813;28;20032;-76
2023/04/09 08:32:21;;;;;;;9.57;6.78;;;10.80;99.90;;;10.11;100.00;101634.41;4183864;28;20025;-76
2023/04/09 08:34:22;;;;;;;8.93;6.45;;;10.90;99.90;;;10.18;100.00;101635.59;4183738;28;20524;-75